• Join FlightAware (Why Join?)
  • Login
  • US Flag 
07:45PM EDT


 

Airport Tracker/Info


-or-


 

Live Flight TrackerFlight Track Log ✈ EJA583P ✈ 08-May-2012 ✈ KASE - KAPA

Flight Track Log - Related Links

Times and Time Zones

All times are in EDT time to prevent confusion due to time zone crossing. See the EJA583P flight status page for this flight to view local times or setup timezone preferences in your user account.

Time Position Orientation Groundspeed Altitude Reporting Facility
EDT Latitude Longitude Course Direction KTS MPH feet Rate Location/Type
06:03PM 39.2900 -107.0178 77° East 280 322 15,700  Level Denver Center
06:07PM 39.3600 -106.6369 93° East 372 428 19,000 660 Climbing Denver Center
06:08PM 39.3539 -106.5028 105° East 367 422 19,000 780 Level Denver Center
06:09PM 39.3247 -106.3658 103° East 360 414 20,600 960 Climbing Denver Center
06:10PM 39.3014 -106.2372 107° East 359 413 21,000 180 Climbing Denver Center
06:11PM 39.2719 -106.1164 105° East 384 442 21,000  Level Denver Center
06:12PM 39.2444 -105.9825 106° East 384 442 21,000  Level Denver Center
06:13PM 39.2125 -105.8381 106° East 379 436 21,000  Level Denver Center
06:14PM 39.1844 -105.7097 107° East 379 436 21,000  Level Denver Center
06:15PM 39.1544 -105.5817 85° East 374 430 21,000 -600 Level Denver Center
06:16PM 39.1639 -105.4503 52° Northeast 374 430 19,900 -1,560 Descending Denver Center
06:17PM 39.2253 -105.3503 49° Northeast 342 394 17,900 -2,100 Descending Denver Center
06:18PM 39.2869 -105.2581 50° Northeast 342 394 15,700 -2,340 Descending Denver Center
06:19PM 39.3425 -105.1711 51° Northeast 321 369 13,300 -1,860 Descending Denver Center
06:20PM 39.3936 -105.0894 51° Northeast 303 349 12,000 -660 Descending Denver Center
06:21PM 39.4447 -105.0078 17° North 298 343 12,000 -840 Level Denver Center
06:22PM 39.5111 -104.9822 North 282 325 10,400 -1,620 Descending Denver Center
06:23PM 39.5839 -104.9753 17° North 268 308 8,800 -1,200 Descending Denver Center
06:24PM 39.6400 -104.9525 89° East 228 262 8,000 -780 Descending Denver Center
06:25PM 39.6411 -104.8931 127° Southeast 146 168 7,300 -780 Descending Denver Center
06:26PM 39.6178 -104.8531 178° South 139 160 6,500 4,800 Descending Denver Center
06:27PM 39.5822 -104.8514 165° South 134 154 17,000 -360 Climbing Denver Center
06:28PM 39.5531 -104.8411 170° South 120 138 5,800  Descending Denver Center
06:29PM 39.5217 -104.8339 173° South 120 138 17,000 5,580 Climbing Denver Center
06:30PM 39.4903 -104.8292 173° South 120 138 17,000  Level Denver Center